Time;durP1;ratioP1;P1;durP2;ratioP2;P2;SDS_P1;SDS_P2;PMS_P1;PMS_P2;Temp;Humidity;BMP_temperature;BMP_pressure;BME280_temperature;BME280_humidity;BME280_pressure;Samples;Min_cycle;Max_cycle;Signal;HPM_P1;HPM_P2
2022/10/22 00:00:05;;;;;;;12.30;9.43;;;;;;;;;;5097414;28;20487;-71
2022/10/22 00:02:32;;;;;;;14.37;8.37;;;;;;;;;;5097383;28;20448;-71
2022/10/22 00:05:02;;;;;;;16.63;10.53;;;;;;;;;;5096753;28;20824;-72
2022/10/22 00:07:29;;;;;;;16.87;9.73;;;;;;;;;;5076817;28;20449;-71
2022/10/22 00:09:56;;;;;;;19.30;10.67;;;;;;;;;;5091697;28;20463;-71
2022/10/22 00:12:23;;;;;;;14.93;9.30;;;;;;;;;;5095193;28;20487;-71
2022/10/22 00:14:50;;;;;;;16.03;9.00;;;;;;;;;;5096213;28;20483;-71
2022/10/22 00:17:21;;;;;;;14.83;9.03;;;;;;;;;;5096994;28;20545;-71
2022/10/22 00:19:48;;;;;;;18.37;10.07;;;;;;;;;;5095245;28;20894;-71
2022/10/22 00:22:18;;;;;;;12.93;9.60;;;;;;;;;;5096351;28;20562;-71
2022/10/22 00:24:45;;;;;;;15.20;10.00;;;;;;;;;;5097195;28;20522;-71
2022/10/22 00:27:12;;;;;;;11.73;8.30;;;;;;;;;;5078245;28;20449;-71
2022/10/22 00:29:39;;;;;;;14.97;10.67;;;;;;;;;;5079991;28;20513;-71
2022/10/22 00:32:07;;;;;;;14.47;9.37;;;;;;;;;;5095832;28;21487;-71
2022/10/22 00:34:38;;;;;;;14.03;11.20;;;;;;;;;;5095308;28;20459;-71
2022/10/22 00:37:05;;;;;;;12.37;8.90;;;;;;;;;;5095308;28;20440;-71
2022/10/22 00:39:32;;;;;;;15.80;9.53;;;;;;;;;;5095765;28;20531;-71
2022/10/22 00:41:59;;;;;;;11.00;7.87;;;;;;;;;;5095919;27;20459;-71
2022/10/22 00:44:45;;;;;;;12.17;8.13;;;;;;;;;;5095928;28;20883;-71
2022/10/22 00:47:12;;;;;;;11.73;7.90;;;;;;;;;;5076465;28;20555;-71
2022/10/22 00:49:40;;;;;;;10.63;7.80;;;;;;;;;;5081855;28;20463;-71
2022/10/22 00:52:07;;;;;;;12.63;9.60;;;;;;;;;;5097790;28;20513;-71
2022/10/22 00:54:34;;;;;;;10.03;7.40;;;;;;;;;;5096610;28;20439;-71
2022/10/22 00:57:01;;;;;;;15.93;8.07;;;;;;;;;;5096440;28;20456;-71
2022/10/22 00:59:29;;;;;;;13.37;8.80;;;;;;;;;;5096232;28;20552;-71
2022/10/22 01:01:56;;;;;;;11.60;7.60;;;;;;;;;;5095645;28;20447;-71
2022/10/22 01:04:23;;;;;;;11.57;7.83;;;;;;;;;;5095028;28;20456;-71
2022/10/22 01:06:51;;;;;;;10.83;8.23;;;;;;;;;;5095406;28;20454;-71
2022/10/22 01:09:23;;;;;;;9.77;7.37;;;;;;;;;;5095077;28;20463;-72
2022/10/22 01:11:53;;;;;;;9.47;7.30;;;;;;;;;;5095934;28;20907;-71
2022/10/22 01:14:24;;;;;;;14.03;8.20;;;;;;;;;;5095963;28;20882;-71
2022/10/22 01:16:54;;;;;;;11.57;7.60;;;;;;;;;;5096969;28;20446;-71
2022/10/22 01:19:45;;;;;;;10.50;6.57;;;;;;;;;;5095591;28;20456;-71
2022/10/22 01:22:17;;;;;;;18.10;8.33;;;;;;;;;;5071029;28;20468;-72
2022/10/22 01:24:52;;;;;;;8.60;7.70;;;;;;;;;;5094931;28;20452;-71
2022/10/22 01:27:25;;;;;;;9.83;7.60;;;;;;;;;;5095225;28;20879;-71
2022/10/22 01:29:53;;;;;;;11.17;6.47;;;;;;;;;;5095246;28;20860;-71
2022/10/22 01:32:22;;;;;;;12.60;7.40;;;;;;;;;;5095240;28;20491;-71
2022/10/22 01:34:51;;;;;;;10.50;6.47;;;;;;;;;;5095769;28;20936;-71
2022/10/22 01:37:18;;;;;;;11.53;8.60;;;;;;;;;;5095699;28;20447;-71
2022/10/22 01:39:46;;;;;;;8.70;7.10;;;;;;;;;;5095329;28;20451;-71
2022/10/22 01:42:13;;;;;;;9.10;7.27;;;;;;;;;;5095869;28;20546;-71
2022/10/22 01:44:43;;;;;;;27.30;7.83;;;;;;;;;;5095013;28;20451;-71
2022/10/22 01:47:14;;;;;;;7.70;6.53;;;;;;;;;;5094992;28;20455;-71
2022/10/22 01:49:57;;;;;;;11.40;6.50;;;;;;;;;;5098369;28;20463;-71
2022/10/22 01:52:27;;;;;;;10.50;7.67;;;;;;;;;;5098565;28;20475;-70
2022/10/22 01:55:01;;;;;;;13.40;7.23;;;;;;;;;;5098321;28;20855;-71
2022/10/22 01:57:33;;;;;;;14.40;7.13;;;;;;;;;;5100375;28;20520;-72
2022/10/22 02:00:03;;;;;;;9.57;7.00;;;;;;;;;;5098306;28;20451;-70
2022/10/22 02:02:34;;;;;;;10.43;7.57;;;;;;;;;;5099724;28;20512;-70
2022/10/22 02:05:04;;;;;;;10.80;7.10;;;;;;;;;;5099321;28;20530;-70
2022/10/22 02:07:33;;;;;;;14.50;8.00;;;;;;;;;;5098885;28;20442;-72
2022/10/22 02:10:01;;;;;;;10.33;6.90;;;;;;;;;;5099084;28;20460;-71
2022/10/22 02:12:29;;;;;;;11.67;8.07;;;;;;;;;;5099135;28;20483;-72
2022/10/22 02:14:57;;;;;;;11.33;7.60;;;;;;;;;;5098185;28;20456;-72
2022/10/22 02:17:25;;;;;;;13.40;7.77;;;;;;;;;;5098781;28;20451;-72
2022/10/22 02:19:56;;;;;;;11.43;9.23;;;;;;;;;;5099488;28;20448;-71
2022/10/22 02:22:23;;;;;;;17.77;8.03;;;;;;;;;;5098160;28;20866;-72
2022/10/22 02:24:50;;;;;;;11.90;7.60;;;;;;;;;;5098220;28;20478;-72
2022/10/22 02:27:20;;;;;;;12.27;7.73;;;;;;;;;;5097308;28;20456;-72
2022/10/22 02:29:50;;;;;;;10.83;8.33;;;;;;;;;;5098759;28;20455;-72
2022/10/22 02:32:19;;;;;;;12.00;7.63;;;;;;;;;;5098126;28;20482;-69
2022/10/22 02:34:48;;;;;;;10.00;7.83;;;;;;;;;;5099823;28;20436;-73
2022/10/22 02:37:17;;;;;;;16.17;8.63;;;;;;;;;;5098651;28;20471;-72
2022/10/22 02:39:44;;;;;;;13.43;7.67;;;;;;;;;;5099641;28;20455;-72
2022/10/22 02:42:12;;;;;;;14.27;8.33;;;;;;;;;;5098130;28;20455;-72
2022/10/22 02:44:39;;;;;;;14.80;7.80;;;;;;;;;;5101558;28;20890;-72
2022/10/22 02:47:06;;;;;;;12.40;7.70;;;;;;;;;;5098301;28;20498;-72
2022/10/22 02:49:39;;;;;;;10.20;7.77;;;;;;;;;;5098649;28;20946;-71
2022/10/22 02:52:06;;;;;;;11.83;7.93;;;;;;;;;;5098041;28;20853;-72
2022/10/22 02:54:34;;;;;;;11.93;8.13;;;;;;;;;;5098659;28;20556;-72
2022/10/22 02:57:01;;;;;;;9.60;6.90;;;;;;;;;;5098564;28;20750;-72
2022/10/22 02:59:28;;;;;;;11.90;8.33;;;;;;;;;;5098015;28;20497;-72
2022/10/22 03:01:55;;;;;;;12.23;8.53;;;;;;;;;;5096996;28;20467;-72
2022/10/22 03:04:22;;;;;;;11.73;7.57;;;;;;;;;;5097280;28;20791;-72
2022/10/22 03:06:48;;;;;;;13.50;8.27;;;;;;;;;;5098334;28;20728;-72
2022/10/22 03:09:15;;;;;;;12.80;7.60;;;;;;;;;;5097386;28;20793;-72
2022/10/22 03:11:43;;;;;;;9.63;7.40;;;;;;;;;;5099563;28;20460;-72
2022/10/22 03:14:10;;;;;;;10.90;7.20;;;;;;;;;;5098068;28;20899;-72
2022/10/22 03:16:37;;;;;;;11.80;7.13;;;;;;;;;;5097561;28;20516;-72
2022/10/22 03:19:04;;;;;;;11.53;8.10;;;;;;;;;;5098364;28;20820;-72
2022/10/22 03:21:34;;;;;;;11.10;8.40;;;;;;;;;;5097188;28;20459;-72
2022/10/22 03:24:03;;;;;;;10.47;7.20;;;;;;;;;;5098070;28;20456;-72
2022/10/22 03:26:30;;;;;;;15.80;8.30;;;;;;;;;;5098522;28;20513;-72
2022/10/22 03:28:59;;;;;;;10.43;7.17;;;;;;;;;;5084081;28;20444;-72
2022/10/22 03:31:26;;;;;;;13.77;8.50;;;;;;;;;;5095740;28;20752;-72
2022/10/22 03:33:53;;;;;;;13.30;7.90;;;;;;;;;;5098305;28;20523;-72
2022/10/22 03:36:20;;;;;;;10.90;8.20;;;;;;;;;;5097767;28;20944;-72
2022/10/22 03:38:47;;;;;;;10.23;7.23;;;;;;;;;;5098604;28;20484;-72
2022/10/22 03:41:14;;;;;;;9.50;7.40;;;;;;;;;;5094319;28;20456;-72
2022/10/22 03:43:41;;;;;;;11.37;7.37;;;;;;;;;;5097594;28;21018;-72
2022/10/22 03:46:09;;;;;;;11.70;8.20;;;;;;;;;;5096380;28;20463;-72
2022/10/22 03:48:36;;;;;;;11.93;7.57;;;;;;;;;;5096974;28;20459;-72
2022/10/22 03:51:07;;;;;;;15.10;7.70;;;;;;;;;;5097251;28;20470;-72
2022/10/22 03:53:35;;;;;;;11.93;8.33;;;;;;;;;;5098185;28;20569;-73
2022/10/22 03:56:02;;;;;;;11.70;8.20;;;;;;;;;;5096870;28;20458;-71
2022/10/22 03:58:30;;;;;;;10.20;7.83;;;;;;;;;;5097539;28;20521;-71
2022/10/22 04:01:05;;;;;;;11.73;7.80;;;;;;;;;;5097591;28;20516;-71
2022/10/22 04:03:33;;;;;;;11.63;7.63;;;;;;;;;;5096712;28;20474;-71
2022/10/22 04:06:01;;;;;;;10.07;7.30;;;;;;;;;;5096573;28;20470;-71
2022/10/22 04:08:28;;;;;;;9.53;7.53;;;;;;;;;;5092386;28;20484;-71
2022/10/22 04:10:55;;;;;;;13.10;7.70;;;;;;;;;;5087234;28;20464;-71
2022/10/22 04:13:22;;;;;;;16.43;8.87;;;;;;;;;;5097562;28;20523;-71
2022/10/22 04:15:50;;;;;;;10.93;7.70;;;;;;;;;;5096777;28;20447;-71
2022/10/22 04:18:17;;;;;;;10.53;7.57;;;;;;;;;;5096987;28;20466;-72
2022/10/22 04:20:45;;;;;;;12.07;7.80;;;;;;;;;;5096169;27;20554;-71
2022/10/22 04:23:12;;;;;;;15.77;8.67;;;;;;;;;;5096845;28;20455;-71
2022/10/22 04:25:39;;;;;;;16.63;7.87;;;;;;;;;;5096653;28;20452;-71
2022/10/22 04:28:07;;;;;;;16.07;8.73;;;;;;;;;;5095969;28;20495;-71
2022/10/22 04:30:34;;;;;;;10.90;8.27;;;;;;;;;;5096532;28;20816;-71
2022/10/22 04:33:01;;;;;;;13.63;9.60;;;;;;;;;;5096211;28;20487;-71
2022/10/22 04:35:29;;;;;;;12.60;8.27;;;;;;;;;;5095268;28;20455;-71
2022/10/22 04:37:56;;;;;;;12.30;9.13;;;;;;;;;;5096939;28;20455;-71
2022/10/22 04:40:23;;;;;;;12.50;7.50;;;;;;;;;;5096713;28;20471;-73
2022/10/22 04:42:50;;;;;;;10.90;8.30;;;;;;;;;;5095827;28;20451;-71
2022/10/22 04:45:17;;;;;;;11.87;7.80;;;;;;;;;;5096471;28;20459;-71
2022/10/22 04:47:44;;;;;;;12.47;8.07;;;;;;;;;;5097035;28;20455;-71
2022/10/22 04:50:12;;;;;;;12.27;8.87;;;;;;;;;;5096353;28;20474;-71
2022/10/22 04:52:39;;;;;;;10.87;7.73;;;;;;;;;;5096711;28;20755;-71
2022/10/22 04:55:07;;;;;;;11.23;7.80;;;;;;;;;;5095804;28;20509;-71
2022/10/22 04:57:34;;;;;;;19.60;8.37;;;;;;;;;;5096642;28;20476;-71
2022/10/22 05:00:04;;;;;;;14.23;8.23;;;;;;;;;;5095086;28;20517;-71
2022/10/22 05:02:31;;;;;;;11.83;7.87;;;;;;;;;;5095838;28;20440;-71
2022/10/22 05:04:58;;;;;;;12.40;7.97;;;;;;;;;;5096075;28;20894;-71
2022/10/22 05:07:26;;;;;;;12.10;8.30;;;;;;;;;;5096150;28;20776;-71
2022/10/22 05:09:53;;;;;;;14.63;8.00;;;;;;;;;;5096278;28;20444;-71
2022/10/22 05:12:21;;;;;;;12.93;8.73;;;;;;;;;;5096085;28;20969;-71
2022/10/22 05:14:48;;;;;;;15.50;8.20;;;;;;;;;;5095612;28;20456;-71
2022/10/22 05:17:17;;;;;;;11.13;8.47;;;;;;;;;;5096458;28;20520;-73
2022/10/22 05:19:44;;;;;;;13.70;8.57;;;;;;;;;;5095903;28;20455;-72
2022/10/22 05:22:11;;;;;;;11.33;7.80;;;;;;;;;;5096405;28;20461;-72
2022/10/22 05:24:38;;;;;;;13.80;8.07;;;;;;;;;;5095479;28;20792;-72
2022/10/22 05:27:05;;;;;;;13.17;8.07;;;;;;;;;;5096066;28;20459;-72
2022/10/22 05:29:38;;;;;;;13.17;8.67;;;;;;;;;;5095207;28;20891;-72
2022/10/22 05:32:08;;;;;;;13.10;7.40;;;;;;;;;;5083891;28;20534;-72
2022/10/22 05:34:35;;;;;;;10.97;8.07;;;;;;;;;;5089401;28;20490;-71
2022/10/22 05:37:05;;;;;;;11.27;8.37;;;;;;;;;;5098694;28;20616;-73
2022/10/22 05:39:35;;;;;;;12.33;8.17;;;;;;;;;;5095626;28;20935;-72
2022/10/22 05:42:02;;;;;;;15.97;7.63;;;;;;;;;;5095973;28;20480;-72
2022/10/22 05:44:29;;;;;;;10.70;7.87;;;;;;;;;;5093193;28;20473;-73
2022/10/22 05:46:58;;;;;;;16.90;9.07;;;;;;;;;;5077240;28;20462;-72
2022/10/22 05:49:25;;;;;;;12.90;9.10;;;;;;;;;;5076962;28;20440;-72
2022/10/22 05:51:52;;;;;;;11.50;8.40;;;;;;;;;;5096687;28;20620;-72
2022/10/22 05:54:22;;;;;;;12.30;8.20;;;;;;;;;;5095867;28;20772;-72
2022/10/22 05:56:53;;;;;;;14.60;8.90;;;;;;;;;;5090843;28;20452;-73
2022/10/22 05:59:23;;;;;;;12.20;7.80;;;;;;;;;;5090467;28;20761;-72
2022/10/22 06:01:53;;;;;;;11.07;7.90;;;;;;;;;;5080335;28;20972;-72
2022/10/22 06:04:39;;;;;;;12.40;7.60;;;;;;;;;;5079025;28;20463;-71
2022/10/22 06:07:10;;;;;;;11.80;8.00;;;;;;;;;;5094873;28;20867;-71
2022/10/22 06:09:37;;;;;;;10.07;6.97;;;;;;;;;;5094314;28;20531;-72
2022/10/22 06:12:07;;;;;;;11.33;8.07;;;;;;;;;;5094491;28;20977;-72
2022/10/22 06:14:34;;;;;;;11.40;8.33;;;;;;;;;;5095479;28;20518;-72
2022/10/22 06:17:01;;;;;;;12.40;7.40;;;;;;;;;;5088480;28;20470;-71
2022/10/22 06:19:30;;;;;;;15.83;8.73;;;;;;;;;;5094395;28;20501;-72
2022/10/22 06:21:57;;;;;;;12.43;7.60;;;;;;;;;;5093980;28;20520;-72
2022/10/22 06:24:27;;;;;;;12.20;8.37;;;;;;;;;;5093575;28;20467;-71
2022/10/22 06:26:54;;;;;;;14.30;7.90;;;;;;;;;;5093303;28;20597;-71
2022/10/22 06:29:21;;;;;;;11.67;8.13;;;;;;;;;;5093233;28;20460;-71
2022/10/22 06:31:50;;;;;;;15.10;8.63;;;;;;;;;;5092399;28;20458;-71
2022/10/22 06:34:18;;;;;;;14.47;9.83;;;;;;;;;;5095137;28;20487;-71
2022/10/22 06:36:45;;;;;;;12.23;8.80;;;;;;;;;;5095540;28;20732;-71
2022/10/22 06:39:16;;;;;;;14.27;8.17;;;;;;;;;;5095375;28;20474;-71
2022/10/22 06:41:43;;;;;;;12.23;8.90;;;;;;;;;;5095994;28;20789;-71
2022/10/22 06:44:13;;;;;;;16.57;8.77;;;;;;;;;;5096536;28;20875;-71
2022/10/22 06:46:40;;;;;;;10.93;8.20;;;;;;;;;;5096513;28;20458;-71
2022/10/22 06:49:09;;;;;;;10.57;8.83;;;;;;;;;;5095731;28;20467;-71
2022/10/22 06:51:36;;;;;;;15.30;9.40;;;;;;;;;;5096265;28;20713;-71
2022/10/22 06:54:03;;;;;;;11.97;7.80;;;;;;;;;;5096939;28;20487;-71
2022/10/22 06:56:32;;;;;;;18.53;10.40;;;;;;;;;;5097024;28;20455;-71
2022/10/22 06:59:04;;;;;;;10.90;7.23;;;;;;;;;;5095037;28;20517;-70
2022/10/22 07:01:32;;;;;;;12.20;8.47;;;;;;;;;;5094401;28;20897;-70
2022/10/22 07:03:59;;;;;;;9.30;7.23;;;;;;;;;;5077343;28;20486;-71
2022/10/22 07:06:35;;;;;;;10.07;7.83;;;;;;;;;;5077159;28;20859;-72
2022/10/22 07:09:05;;;;;;;10.93;8.63;;;;;;;;;;5090536;28;20482;-71
2022/10/22 07:11:39;;;;;;;13.80;9.03;;;;;;;;;;5097780;28;20448;-72
2022/10/22 07:14:06;;;;;;;14.37;9.37;;;;;;;;;;5076835;28;20557;-72
2022/10/22 07:16:33;;;;;;;9.00;7.00;;;;;;;;;;5091331;28;20811;-72
2022/10/22 07:19:00;;;;;;;13.47;8.80;;;;;;;;;;5096439;28;20447;-71
2022/10/22 07:21:27;;;;;;;12.33;7.87;;;;;;;;;;5097196;28;20546;-71
2022/10/22 07:23:57;;;;;;;12.30;8.27;;;;;;;;;;5109567;28;20475;-70
2022/10/22 07:26:27;;;;;;;13.10;8.63;;;;;;;;;;5093727;28;20460;-71
2022/10/22 07:28:55;;;;;;;17.53;8.50;;;;;;;;;;5076620;28;20447;-72
2022/10/22 07:31:22;;;;;;;11.80;7.43;;;;;;;;;;5094176;28;20497;-72
2022/10/22 07:33:49;;;;;;;12.00;8.30;;;;;;;;;;5093547;28;20487;-72
2022/10/22 07:36:20;;;;;;;15.20;10.37;;;;;;;;;;5093829;28;20876;-71
2022/10/22 07:38:47;;;;;;;16.00;9.37;;;;;;;;;;5094600;28;20452;-72
2022/10/22 07:41:15;;;;;;;13.90;8.40;;;;;;;;;;5094951;28;20848;-71
2022/10/22 07:43:45;;;;;;;12.23;9.17;;;;;;;;;;5090623;28;20952;-72
2022/10/22 07:46:17;;;;;;;11.73;7.87;;;;;;;;;;5083668;28;20460;-72
2022/10/22 07:48:50;;;;;;;14.73;8.57;;;;;;;;;;5092406;28;20545;-73
2022/10/22 07:51:17;;;;;;;12.20;8.80;;;;;;;;;;5093530;28;20471;-71
2022/10/22 07:53:45;;;;;;;15.53;9.77;;;;;;;;;;5093262;28;20483;-72
2022/10/22 07:56:14;;;;;;;15.80;9.97;;;;;;;;;;5076406;28;20448;-72
2022/10/22 07:58:44;;;;;;;14.00;8.60;;;;;;;;;;5076303;28;20464;-72
2022/10/22 08:01:12;;;;;;;14.80;9.70;;;;;;;;;;5089957;28;20508;-72
2022/10/22 08:03:40;;;;;;;12.77;8.10;;;;;;;;;;5086207;28;20945;-72
2022/10/22 08:06:08;;;;;;;18.87;8.80;;;;;;;;;;5092297;28;20850;-71
2022/10/22 08:08:38;;;;;;;15.50;8.43;;;;;;;;;;5083670;28;20471;-71
2022/10/22 08:11:10;;;;;;;12.10;9.17;;;;;;;;;;5092726;28;20439;-71
2022/10/22 08:13:38;;;;;;;14.90;8.23;;;;;;;;;;5104232;28;20484;-71
2022/10/22 08:16:05;;;;;;;10.13;7.80;;;;;;;;;;5105900;27;20469;-71
2022/10/22 08:18:34;;;;;;;11.07;8.30;;;;;;;;;;5092473;28;20479;-71
2022/10/22 08:21:02;;;;;;;12.20;9.97;;;;;;;;;;5083358;28;20444;-72
2022/10/22 08:23:38;;;;;;;12.13;8.83;;;;;;;;;;5090890;27;20471;-72
2022/10/22 08:26:05;;;;;;;12.93;8.90;;;;;;;;;;5077788;28;21083;-71
2022/10/22 08:28:44;;;;;;;16.30;8.27;;;;;;;;;;5090882;28;20604;-73
2022/10/22 08:31:11;;;;;;;13.00;8.53;;;;;;;;;;5092357;28;20435;-72
2022/10/22 08:33:38;;;;;;;12.80;9.20;;;;;;;;;;5095821;28;20487;-71
2022/10/22 08:36:07;;;;;;;15.97;9.70;;;;;;;;;;5091265;28;20459;-72
2022/10/22 08:38:34;;;;;;;10.87;7.93;;;;;;;;;;5090294;28;20464;-72
2022/10/22 08:41:06;;;;;;;13.57;7.63;;;;;;;;;;5081568;28;20451;-75
2022/10/22 08:43:48;;;;;;;10.17;7.80;;;;;;;;;;5094970;28;20467;-73
2022/10/22 08:46:29;;;;;;;17.27;7.83;;;;;;;;;;5093533;28;20475;-73
2022/10/22 08:48:57;;;;;;;9.20;7.27;;;;;;;;;;5097297;28;20456;-74
2022/10/22 08:51:27;;;;;;;10.77;7.70;;;;;;;;;;5088744;27;20472;-73
2022/10/22 08:54:06;;;;;;;11.43;7.63;;;;;;;;;;5091529;28;20483;-73
2022/10/22 08:56:35;;;;;;;13.87;7.57;;;;;;;;;;5094307;28;20447;-73
2022/10/22 08:59:06;;;;;;;10.57;7.60;;;;;;;;;;5095305;28;20552;-72
2022/10/22 09:01:40;;;;;;;13.80;7.50;;;;;;;;;;5093966;28;20836;-73
2022/10/22 09:04:12;;;;;;;9.37;6.17;;;;;;;;;;5086026;28;20475;-74
2022/10/22 09:06:43;;;;;;;13.27;6.83;;;;;;;;;;5094306;28;20459;-74
2022/10/22 09:09:11;;;;;;;11.77;6.43;;;;;;;;;;5092094;28;20461;-73
2022/10/22 09:11:40;;;;;;;11.77;6.37;;;;;;;;;;5100281;28;20471;-73
2022/10/22 09:14:10;;;;;;;9.10;6.00;;;;;;;;;;5090340;28;20486;-73
2022/10/22 09:16:40;;;;;;;14.20;6.60;;;;;;;;;;5092699;28;20884;-73
2022/10/22 09:19:12;;;;;;;11.00;6.80;;;;;;;;;;5092272;28;20478;-73
2022/10/22 09:21:46;;;;;;;16.93;6.07;;;;;;;;;;5091193;28;20451;-73
2022/10/22 09:24:17;;;;;;;7.27;5.70;;;;;;;;;;5086035;28;20487;-72
2022/10/22 09:26:44;;;;;;;6.43;4.80;;;;;;;;;;5087811;28;20474;-73
2022/10/22 09:29:17;;;;;;;7.60;5.10;;;;;;;;;;5090033;28;20463;-72
2022/10/22 09:31:44;;;;;;;7.37;3.90;;;;;;;;;;5092104;28;20550;-71
2022/10/22 09:34:14;;;;;;;5.50;4.30;;;;;;;;;;5096857;28;20490;-71
2022/10/22 09:36:42;;;;;;;7.83;4.60;;;;;;;;;;5088385;28;20442;-73
2022/10/22 09:39:22;;;;;;;6.50;4.30;;;;;;;;;;5089442;28;20498;-73
2022/10/22 09:41:49;;;;;;;6.73;3.53;;;;;;;;;;5085170;28;20555;-73
2022/10/22 09:44:18;;;;;;;8.63;3.70;;;;;;;;;;5088717;28;20909;-73
2022/10/22 09:46:46;;;;;;;5.63;2.87;;;;;;;;;;5092815;27;20503;-72
2022/10/22 09:49:16;;;;;;;9.80;4.10;;;;;;;;;;5093459;28;20501;-73
2022/10/22 09:51:48;;;;;;;4.80;3.67;;;;;;;;;;5092926;28;20459;-73
2022/10/22 09:54:18;;;;;;;6.60;3.73;;;;;;;;;;5087754;28;20494;-73
2022/10/22 09:56:48;;;;;;;5.43;3.17;;;;;;;;;;5089658;28;20530;-73
2022/10/22 09:59:16;;;;;;;8.50;3.10;;;;;;;;;;5084535;28;20510;-72
2022/10/22 10:01:47;;;;;;;7.67;3.17;;;;;;;;;;5092450;28;21012;-72
2022/10/22 10:04:15;;;;;;;6.57;2.80;;;;;;;;;;5093206;28;20470;-72
2022/10/22 10:06:43;;;;;;;4.30;2.73;;;;;;;;;;5106288;27;20486;-71
2022/10/22 10:09:15;;;;;;;5.67;3.10;;;;;;;;;;5092115;28;20525;-71
2022/10/22 10:11:45;;;;;;;5.97;2.80;;;;;;;;;;5096653;28;20507;-71
2022/10/22 10:14:16;;;;;;;3.03;2.03;;;;;;;;;;5097649;28;20498;-71
2022/10/22 10:16:48;;;;;;;5.13;2.63;;;;;;;;;;5096233;28;20504;-72
2022/10/22 10:19:20;;;;;;;4.50;2.50;;;;;;;;;;5090834;28;20494;-72
2022/10/22 10:21:51;;;;;;;3.60;2.47;;;;;;;;;;5096072;28;20445;-70
2022/10/22 10:24:22;;;;;;;5.63;2.17;;;;;;;;;;5099389;28;20527;-71
2022/10/22 10:26:53;;;;;;;4.17;2.80;;;;;;;;;;5089056;28;20458;-70
2022/10/22 10:29:28;;;;;;;6.57;3.03;;;;;;;;;;5095878;28;20443;-71
2022/10/22 10:32:03;;;;;;;4.63;2.37;;;;;;;;;;5088729;28;20498;-72
2022/10/22 10:34:36;;;;;;;4.87;2.13;;;;;;;;;;5074865;28;20529;-72
2022/10/22 10:37:18;;;;;;;3.00;1.50;;;;;;;;;;5076341;28;20483;-72
2022/10/22 10:39:55;;;;;;;4.70;2.37;;;;;;;;;;5084409;27;20965;-72
2022/10/22 10:42:27;;;;;;;5.53;2.47;;;;;;;;;;5093119;28;20911;-72
2022/10/22 10:45:01;;;;;;;7.63;2.00;;;;;;;;;;5083204;28;20761;-72
2022/10/22 10:47:38;;;;;;;2.87;1.87;;;;;;;;;;5089744;28;21186;-71
2022/10/22 10:50:17;;;;;;;6.43;3.80;;;;;;;;;;5091376;27;20470;-72
2022/10/22 10:52:45;;;;;;;10.97;2.53;;;;;;;;;;5095198;28;20545;-72
2022/10/22 10:55:20;;;;;;;4.07;1.90;;;;;;;;;;5093956;28;20490;-71
2022/10/22 10:57:55;;;;;;;4.13;1.73;;;;;;;;;;5093128;28;20849;-72
2022/10/22 11:00:43;;;;;;;6.13;2.20;;;;;;;;;;5090294;28;20462;-71
2022/10/22 11:03:21;;;;;;;5.20;2.37;;;;;;;;;;5091463;28;20567;-72
2022/10/22 11:05:50;;;;;;;3.37;1.73;;;;;;;;;;5089328;27;20901;-72
2022/10/22 11:08:20;;;;;;;6.70;2.27;;;;;;;;;;5086272;28;20586;-72
2022/10/22 11:10:55;;;;;;;6.47;2.17;;;;;;;;;;5091499;28;20463;-70
2022/10/22 11:13:30;;;;;;;5.67;1.80;;;;;;;;;;5088993;28;20891;-71
2022/10/22 11:16:03;;;;;;;3.40;1.70;;;;;;;;;;5093538;28;20470;-71
2022/10/22 11:18:36;;;;;;;5.43;2.00;;;;;;;;;;5094044;28;20490;-71
2022/10/22 11:21:09;;;;;;;3.50;2.00;;;;;;;;;;5090183;28;20463;-72
2022/10/22 11:23:38;;;;;;;3.30;2.03;;;;;;;;;;5090950;28;20475;-71
2022/10/22 11:26:10;;;;;;;5.20;2.27;;;;;;;;;;5091147;28;20448;-72
2022/10/22 11:28:45;;;;;;;4.20;1.90;;;;;;;;;;5093154;28;20463;-71
2022/10/22 11:31:16;;;;;;;10.60;2.00;;;;;;;;;;5092317;28;20469;-71
2022/10/22 11:33:48;;;;;;;13.37;2.30;;;;;;;;;;5091879;28;20479;-70
2022/10/22 11:36:21;;;;;;;4.30;1.90;;;;;;;;;;5094500;28;20604;-72
2022/10/22 11:44:24;;;;;;;4.37;1.60;;;;;;;;;;5090310;28;20532;-72
2022/10/22 11:46:55;;;;;;;8.60;2.67;;;;;;;;;;5091460;28;20596;-72
2022/10/22 11:49:25;;;;;;;4.70;2.00;;;;;;;;;;5091117;27;20860;-71
2022/10/22 11:52:26;;;;;;;5.30;1.43;;;;;;;;;;5093503;28;21138;-72
2022/10/22 11:57:44;;;;;;;6.17;1.73;;;;;;;;;;5073092;28;20453;-71
2022/10/22 12:00:37;;;;;;;5.23;2.43;;;;;;;;;;5085110;28;20636;-71
2022/10/22 12:03:21;;;;;;;3.80;2.03;;;;;;;;;;5090162;27;20518;-72
2022/10/22 12:06:04;;;;;;;6.20;2.10;;;;;;;;;;5092661;28;20455;-71
2022/10/22 12:08:39;;;;;;;4.63;2.03;;;;;;;;;;5088845;28;20466;-72
2022/10/22 12:11:15;;;;;;;4.07;2.00;;;;;;;;;;5080970;28;20562;-69
2022/10/22 12:14:06;;;;;;;7.03;1.80;;;;;;;;;;5086502;28;20487;-70
2022/10/22 12:16:38;;;;;;;4.20;1.63;;;;;;;;;;5071852;28;20476;-73
2022/10/22 12:19:13;;;;;;;3.20;1.40;;;;;;;;;;5092334;28;20903;-71
2022/10/22 12:21:41;;;;;;;9.07;1.90;;;;;;;;;;5088069;28;20490;-71
2022/10/22 12:24:13;;;;;;;3.87;1.73;;;;;;;;;;5086160;28;20844;-71
2022/10/22 12:26:40;;;;;;;5.57;2.07;;;;;;;;;;5090672;28;20517;-72
2022/10/22 12:29:10;;;;;;;6.10;2.50;;;;;;;;;;5087492;28;20539;-72
2022/10/22 12:31:48;;;;;;;9.43;5.23;;;;;;;;;;5091034;28;20532;-73
2022/10/22 12:34:18;;;;;;;3.40;1.43;;;;;;;;;;5087361;28;20487;-72
2022/10/22 12:36:49;;;;;;;7.03;2.30;;;;;;;;;;5089363;28;20570;-71
2022/10/22 12:39:17;;;;;;;4.00;2.10;;;;;;;;;;5091923;28;20459;-72
2022/10/22 12:41:44;;;;;;;6.60;1.87;;;;;;;;;;5085100;28;20460;-72
2022/10/22 12:44:12;;;;;;;4.47;2.00;;;;;;;;;;5092505;28;20471;-71
2022/10/22 12:46:45;;;;;;;6.83;2.40;;;;;;;;;;5092639;28;20475;-70
2022/10/22 12:49:15;;;;;;;6.50;2.37;;;;;;;;;;5087852;28;20459;-70
2022/10/22 12:51:42;;;;;;;3.77;2.40;;;;;;;;;;5084780;28;20525;-72
2022/10/22 12:54:14;;;;;;;9.73;4.43;;;;;;;;;;5092053;28;20519;-70
2022/10/22 12:56:46;;;;;;;4.00;2.20;;;;;;;;;;5092751;28;20476;-71
2022/10/22 12:59:19;;;;;;;4.27;2.13;;;;;;;;;;5091969;28;20879;-70
2022/10/22 13:01:49;;;;;;;6.47;2.70;;;;;;;;;;5091878;28;20847;-70
2022/10/22 13:04:21;;;;;;;6.00;2.97;;;;;;;;;;5093399;28;20528;-71
2022/10/22 13:06:49;;;;;;;3.67;2.40;;;;;;;;;;5093206;28;20478;-71
2022/10/22 13:09:22;;;;;;;3.90;1.80;;;;;;;;;;5092180;28;20914;-71
2022/10/22 13:12:01;;;;;;;8.50;2.73;;;;;;;;;;5089820;28;20452;-69
2022/10/22 13:14:29;;;;;;;5.73;2.40;;;;;;;;;;5092452;28;20862;-71
2022/10/22 13:17:10;;;;;;;4.47;2.10;;;;;;;;;;5082326;28;20448;-71
2022/10/22 13:19:41;;;;;;;6.70;2.90;;;;;;;;;;5087607;28;20931;-72
2022/10/22 13:22:39;;;;;;;6.87;2.87;;;;;;;;;;5083171;28;20527;-73
2022/10/22 13:25:31;;;;;;;6.73;2.80;;;;;;;;;;5095341;28;20480;-72
2022/10/22 13:28:03;;;;;;;4.80;2.77;;;;;;;;;;5089733;28;20510;-73
2022/10/22 13:30:32;;;;;;;5.23;2.13;;;;;;;;;;5095561;27;20444;-71
2022/10/22 13:33:04;;;;;;;9.40;2.20;;;;;;;;;;5086481;28;21085;-72
2022/10/22 13:35:36;;;;;;;4.33;1.83;;;;;;;;;;5091416;28;20472;-71
2022/10/22 13:38:06;;;;;;;5.00;2.20;;;;;;;;;;5090059;28;20470;-71
2022/10/22 13:40:34;;;;;;;3.03;1.80;;;;;;;;;;5103368;28;20816;-71
2022/10/22 13:43:01;;;;;;;4.73;2.40;;;;;;;;;;5081303;28;20460;-73
2022/10/22 13:45:28;;;;;;;5.60;2.80;;;;;;;;;;5094552;28;20486;-73
2022/10/22 13:47:56;;;;;;;4.63;1.83;;;;;;;;;;5097225;28;20502;-72
2022/10/22 13:50:23;;;;;;;3.20;1.90;;;;;;;;;;5103506;28;20462;-73
2022/10/22 13:52:52;;;;;;;7.13;1.77;;;;;;;;;;5101220;27;20920;-73
2022/10/22 13:55:20;;;;;;;4.70;1.60;;;;;;;;;;5096207;28;20486;-72
2022/10/22 13:57:47;;;;;;;6.90;2.20;;;;;;;;;;5095268;28;20462;-73
2022/10/22 14:00:18;;;;;;;3.53;2.23;;;;;;;;;;5094757;28;20456;-73
2022/10/22 14:02:46;;;;;;;4.50;1.90;;;;;;;;;;5093777;28;21054;-69
2022/10/22 14:05:16;;;;;;;4.43;1.40;;;;;;;;;;5095817;28;20867;-71
2022/10/22 14:07:48;;;;;;;5.23;1.80;;;;;;;;;;5096898;28;20455;-71
2022/10/22 14:10:17;;;;;;;5.00;2.60;;;;;;;;;;5096723;27;20719;-70
2022/10/22 14:12:47;;;;;;;6.33;2.50;;;;;;;;;;5094807;28;20486;-69
2022/10/22 14:15:15;;;;;;;7.00;2.80;;;;;;;;;;5092797;28;20940;-69
2022/10/22 14:17:44;;;;;;;6.97;2.50;;;;;;;;;;5094834;28;20455;-70
2022/10/22 14:20:17;;;;;;;6.57;2.10;;;;;;;;;;5094143;28;20459;-70
2022/10/22 14:22:46;;;;;;;9.47;3.10;;;;;;;;;;5094326;28;20482;-70
2022/10/22 14:25:14;;;;;;;7.43;3.70;;;;;;;;;;5091771;28;20471;-70
2022/10/22 14:27:41;;;;;;;5.40;2.40;;;;;;;;;;5094038;28;20487;-71
2022/10/22 14:32:52;;;;;;;4.27;1.87;;;;;;;;;;5093594;28;20483;-71
2022/10/22 14:35:20;;;;;;;2.97;1.60;;;;;;;;;;5094962;28;20540;-72
2022/10/22 14:37:51;;;;;;;5.13;2.27;;;;;;;;;;5093413;28;20490;-72
2022/10/22 14:40:21;;;;;;;3.00;1.77;;;;;;;;;;5094541;28;20475;-69
2022/10/22 14:42:49;;;;;;;4.23;1.70;;;;;;;;;;5094989;28;20836;-70
2022/10/22 14:45:27;;;;;;;3.90;1.67;;;;;;;;;;5095686;28;20459;-71
2022/10/22 14:47:54;;;;;;;8.20;2.50;;;;;;;;;;5095468;28;20463;-71
2022/10/22 14:50:22;;;;;;;4.23;2.33;;;;;;;;;;5094268;28;20451;-70
2022/10/22 14:52:51;;;;;;;4.90;1.80;;;;;;;;;;5095043;28;20444;-71
2022/10/22 14:55:19;;;;;;;4.07;2.37;;;;;;;;;;5094883;28;20498;-70
2022/10/22 14:57:47;;;;;;;4.00;2.10;;;;;;;;;;5096364;28;20512;-71
2022/10/22 15:00:23;;;;;;;4.53;1.93;;;;;;;;;;5095975;28;20516;-72
2022/10/22 15:02:54;;;;;;;7.17;2.33;;;;;;;;;;5095259;28;20867;-71